Odin — HKNM — position and weather

sailwx.info

Track history (hours):
 
Tides and Currents Weather Stations Pressure Air Temp Water Temp Dewpoint Dewpoint Depression Visibility Wind Speed Wind Dir Waves Ship Positions

Odin

Last reported at 2017-Dec-27 23:28 UTC. Time now 2018-Jun-23 23:24 UTC.
Position N 09°13' W 079°55'.
Warning: this ship's position is months out of date.

Length 23 m; draft 3.8 m.

Type: Tug. MMSI: 730151533.

Date/timePositionNaut miles runAvg speedWind from/ knotsBaromVisibWave heightAir tempDewpointWater temp
2017-Dec-27 23:28N 09°13' W 079°55'4 7.4
2017-Dec-27 22:58N 09°16' W 079°55'0 0.4
2017-Dec-27 22:30N 09°16' W 079°55'0 0.3
2017-Dec-27 21:52N 09°17' W 079°55'1 2.2
2017-Dec-27 21:30N 09°17' W 079°55'4 7.1
2017-Dec-27 21:00N 09°21' W 079°55'1 2.1
2017-Dec-27 20:23N 09°22' W 079°55'0 0.0
2017-Dec-27 19:59N 09°22' W 079°55'0 0.0
2017-Dec-27 19:29N 09°22' W 079°55'0 0.0
2017-Dec-27 18:59N 09°22' W 079°55'0 0.0
2017-Dec-27 18:29N 09°22' W 079°55'0 0.0
2017-Dec-27 17:59N 09°22' W 079°55'0 0.0
2017-Dec-27 17:29N 09°22' W 079°55'0 0.0
2017-Dec-27 16:59N 09°22' W 079°55'0 0.0
2017-Dec-27 16:29N 09°22' W 079°55'0 0.0
2017-Dec-27 15:59N 09°22' W 079°55'0 0.0
2017-Dec-27 15:28N 09°22' W 079°55'0 0.0
2017-Dec-27 14:58N 09°22' W 079°55'0 0.0
2017-Dec-27 14:28N 09°22' W 079°55'0 0.0
2017-Dec-27 13:58N 09°22' W 079°55'0 0.0
2017-Dec-27 13:25N 09°22' W 079°55'0 0.0
2017-Dec-27 12:59N 09°22' W 079°55'0 0.0
2017-Dec-27 12:30N 09°22' W 079°55'0 0.0
2017-Dec-27 11:59N 09°22' W 079°55'0 0.0
2017-Dec-27 11:29N 09°22' W 079°55'0 0.0
2017-Dec-27 10:59N 09°22' W 079°55'0 0.0
2017-Dec-27 10:29N 09°22' W 079°55'0 0.0
2017-Dec-27 09:59N 09°22' W 079°55'0 0.0
2017-Dec-27 09:29N 09°22' W 079°55'0 0.0
2017-Dec-27 08:59N 09°22' W 079°55'0 0.0
2017-Dec-27 08:29N 09°22' W 079°55'0 0.0
2017-Dec-27 07:58N 09°22' W 079°55'0 0.0
2017-Dec-27 07:28N 09°22' W 079°55'0 0.0
2017-Dec-27 06:58N 09°22' W 079°55'0 0.0
2017-Dec-27 06:28N 09°22' W 079°55'0 0.0
2017-Dec-27 05:55N 09°22' W 079°55'0 0.0
2017-Dec-27 05:28N 09°22' W 079°55'0 0.0
2017-Dec-27 04:58N 09°22' W 079°55'0 0.0
2017-Dec-27 04:28N 09°22' W 079°55'0 0.0
2017-Dec-27 03:58N 09°22' W 079°55'0 0.0
2017-Dec-27 03:28N 09°22' W 079°55'0 0.0
2017-Dec-27 02:58N 09°22' W 079°55'0 0.0
2017-Dec-27 02:28N 09°22' W 079°55'0 0.0
2017-Dec-27 01:58N 09°22' W 079°55'0 0.0
2017-Dec-27 01:28N 09°22' W 079°55'0 0.0
2017-Dec-27 00:58N 09°22' W 079°55'0 0.0
2017-Dec-27 00:28N 09°22' W 079°55'0 0.0
2017-Dec-26 23:58N 09°22' W 079°55'0 0.0
2017-Dec-26 23:28N 09°22' W 079°55'0 0.0
2017-Dec-26 22:58N 09°22' W 079°55'0 0.0
2017-Dec-26 22:28N 09°22' W 079°55'0 0.0
2017-Dec-26 21:58N 09°22' W 079°55'0 0.0
2017-Dec-26 21:28N 09°22' W 079°55'0 0.0
2017-Dec-26 20:58N 09°22' W 079°55'0 0.0
2017-Dec-26 20:28N 09°22' W 079°55'0 0.0
2017-Dec-26 19:58N 09°22' W 079°55'0 0.0
2017-Dec-26 19:28N 09°22' W 079°55'0 0.0
2017-Dec-26 18:58N 09°22' W 079°55'0 0.0
2017-Dec-26 18:28N 09°22' W 079°55'0 0.0
2017-Dec-26 17:58N 09°22' W 079°55'0 0.0
2017-Dec-26 17:28N 09°22' W 079°55'0 0.0
2017-Dec-26 16:58N 09°22' W 079°55'0 0.0
2017-Dec-26 16:28N 09°22' W 079°55'0 0.0
2017-Dec-26 15:58N 09°22' W 079°55'0 0.0
2017-Dec-26 15:28N 09°22' W 079°55'0 0.0
2017-Dec-26 14:58N 09°22' W 079°55'0 0.0
2017-Dec-26 14:28N 09°22' W 079°55'0 0.0
2017-Dec-26 13:58N 09°22' W 079°55'0 0.0
2017-Dec-26 13:28N 09°22' W 079°55'0 0.0
2017-Dec-26 12:58N 09°22' W 079°55'0 0.0
2017-Dec-26 12:30N 09°22' W 079°55'0 0.0
2017-Dec-26 12:00N 09°22' W 079°55'0 0.0
2017-Dec-26 11:30N 09°22' W 079°55'0 0.0
2017-Dec-26 11:00N 09°22' W 079°55'0 0.0
2017-Dec-26 10:30N 09°22' W 079°55'0 0.0
2017-Dec-26 09:59N 09°22' W 079°55'0 0.0
2017-Dec-26 09:29N 09°22' W 079°55'0 0.0
2017-Dec-26 08:56N 09°22' W 079°55'0 0.0
2017-Dec-26 08:29N 09°22' W 079°55'0 0.0
2017-Dec-26 07:59N 09°22' W 079°55'0 0.0
2017-Dec-26 07:29N 09°22' W 079°55'0 0.0
2017-Dec-26 06:59N 09°22' W 079°55'0 0.0
2017-Dec-26 06:29N 09°22' W 079°55'0 0.0
2017-Dec-26 05:59N 09°22' W 079°55'0 0.0
2017-Dec-26 05:29N 09°22' W 079°55'0 0.0
2017-Dec-26 04:59N 09°22' W 079°55'0 0.0
2017-Dec-26 04:29N 09°22' W 079°55'0 0.0
2017-Dec-26 03:59N 09°22' W 079°55'0 0.0
2017-Dec-26 03:30N 09°22' W 079°55'0 0.0
2017-Dec-26 02:59N 09°22' W 079°55'0 0.0
2017-Dec-26 02:25N 09°22' W 079°55'0 0.0
2017-Dec-26 01:58N 09°22' W 079°55'0 0.0
2017-Dec-26 01:28N 09°22' W 079°55'0 0.0
2017-Dec-26 00:58N 09°22' W 079°55'0 0.0
2017-Dec-26 00:28N 09°22' W 079°55'0 0.0
2017-Dec-25 23:58N 09°22' W 079°55'0 0.0
2017-Dec-25 23:28N 09°22' W 079°55'0 0.0
2017-Dec-25 22:58N 09°22' W 079°55'0 0.0
2017-Dec-25 22:28N 09°22' W 079°55'0 0.0
2017-Dec-25 21:58N 09°22' W 079°55'0 0.0
2017-Dec-25 21:28N 09°22' W 079°55'0 0.0
2017-Dec-25 20:58N 09°22' W 079°55'0 0.0
2017-Dec-25 20:28N 09°22' W 079°55'0 0.0
2017-Dec-25 19:58N 09°22' W 079°55'0 0.0
2017-Dec-25 19:28N 09°22' W 079°55'0 0.0
2017-Dec-25 18:58N 09°22' W 079°55'0 0.0
2017-Dec-25 18:28N 09°22' W 079°55'0 0.0
2017-Dec-25 17:58N 09°22' W 079°55'0 0.0
2017-Dec-25 17:28N 09°22' W 079°55'0 0.0
2017-Dec-25 16:58N 09°22' W 079°55'0 0.0
2017-Dec-25 16:28N 09°22' W 079°55'0 0.0
2017-Dec-25 15:58N 09°22' W 079°55'0 0.0
2017-Dec-25 15:28N 09°22' W 079°55'0 0.0
2017-Dec-25 14:58N 09°22' W 079°55'0 0.0
2017-Dec-25 14:28N 09°22' W 079°55'0 0.0
2017-Dec-25 13:58N 09°22' W 079°55'0 0.0
2017-Dec-25 13:28N 09°22' W 079°55'0 0.0
2017-Dec-25 12:58N 09°22' W 079°55'0 0.0
2017-Dec-25 12:28N 09°22' W 079°55'0 0.0
2017-Dec-25 11:58N 09°22' W 079°55'0 0.0
2017-Dec-25 11:28N 09°22' W 079°55'1 2.1
2017-Dec-25 11:00N 09°23' W 079°55'2 3.4
2017-Dec-25 10:30N 09°25' W 079°55'1 2.7
2017-Dec-25 10:00N 09°26' W 079°54'2 4.6
2017-Dec-25 09:30N 09°27' W 079°52'3 6.4
2017-Dec-25 09:00N 09°29' W 079°50'  
2017-Dec-21 22:22N 10°20' W 075°31'0 0.0
2017-Dec-21 21:58N 10°20' W 075°31'0 0.0
2017-Dec-21 21:28N 10°20' W 075°31'0 0.0
2017-Dec-21 20:58N 10°20' W 075°31'0 0.0
2017-Dec-21 20:28N 10°20' W 075°31'0 0.0
2017-Dec-21 19:58N 10°20' W 075°31'0 0.0
2017-Dec-21 19:28N 10°20' W 075°31'0 0.0
2017-Dec-21 18:58N 10°20' W 075°31'0 0.0
2017-Dec-21 18:28N 10°20' W 075°31'0 0.0
2017-Dec-21 17:58N 10°20' W 075°31'0 0.0
2017-Dec-21 17:28N 10°20' W 075°31'0 0.0
2017-Dec-21 17:00N 10°20' W 075°31'0 0.0
2017-Dec-21 16:30N 10°20' W 075°31'  
Track history (hours):
 
Tides and Currents Weather Stations Pressure Air Temp Water Temp Dewpoint Dewpoint Depression Visibility Wind Speed Wind Dir Waves Ship Positions

Odin

Last reported at 2017-Dec-27 23:28 UTC. Time now 2018-Jun-23 23:24 UTC.
Position N 09°13' W 079°55'.
Warning: this ship's position is months out of date.

Length 23 m; draft 3.8 m.

Type: Tug. MMSI: 730151533.

Date/timePositionNaut miles runAvg speedWind from/ knotsBaromVisibWave heightAir tempDewpointWater temp
2017-Dec-27 23:28N 09°13' W 079°55'4 7.4
2017-Dec-27 22:58N 09°16' W 079°55'0 0.4
2017-Dec-27 22:30N 09°16' W 079°55'0 0.3
2017-Dec-27 21:52N 09°17' W 079°55'1 2.2
2017-Dec-27 21:30N 09°17' W 079°55'4 7.1
2017-Dec-27 21:00N 09°21' W 079°55'1 2.1
2017-Dec-27 20:23N 09°22' W 079°55'0 0.0
2017-Dec-27 19:59N 09°22' W 079°55'0 0.0
2017-Dec-27 19:29N 09°22' W 079°55'0 0.0
2017-Dec-27 18:59N 09°22' W 079°55'0 0.0
2017-Dec-27 18:29N 09°22' W 079°55'0 0.0
2017-Dec-27 17:59N 09°22' W 079°55'0 0.0
2017-Dec-27 17:29N 09°22' W 079°55'0 0.0
2017-Dec-27 16:59N 09°22' W 079°55'0 0.0
2017-Dec-27 16:29N 09°22' W 079°55'0 0.0
2017-Dec-27 15:59N 09°22' W 079°55'0 0.0
2017-Dec-27 15:28N 09°22' W 079°55'0 0.0
2017-Dec-27 14:58N 09°22' W 079°55'0 0.0
2017-Dec-27 14:28N 09°22' W 079°55'0 0.0
2017-Dec-27 13:58N 09°22' W 079°55'0 0.0
2017-Dec-27 13:25N 09°22' W 079°55'0 0.0
2017-Dec-27 12:59N 09°22' W 079°55'0 0.0
2017-Dec-27 12:30N 09°22' W 079°55'0 0.0
2017-Dec-27 11:59N 09°22' W 079°55'0 0.0
2017-Dec-27 11:29N 09°22' W 079°55'0 0.0
2017-Dec-27 10:59N 09°22' W 079°55'0 0.0
2017-Dec-27 10:29N 09°22' W 079°55'0 0.0
2017-Dec-27 09:59N 09°22' W 079°55'0 0.0
2017-Dec-27 09:29N 09°22' W 079°55'0 0.0
2017-Dec-27 08:59N 09°22' W 079°55'0 0.0
2017-Dec-27 08:29N 09°22' W 079°55'0 0.0
2017-Dec-27 07:58N 09°22' W 079°55'0 0.0
2017-Dec-27 07:28N 09°22' W 079°55'0 0.0
2017-Dec-27 06:58N 09°22' W 079°55'0 0.0
2017-Dec-27 06:28N 09°22' W 079°55'0 0.0
2017-Dec-27 05:55N 09°22' W 079°55'0 0.0
2017-Dec-27 05:28N 09°22' W 079°55'0 0.0
2017-Dec-27 04:58N 09°22' W 079°55'0 0.0
2017-Dec-27 04:28N 09°22' W 079°55'0 0.0
2017-Dec-27 03:58N 09°22' W 079°55'0 0.0
2017-Dec-27 03:28N 09°22' W 079°55'0 0.0
2017-Dec-27 02:58N 09°22' W 079°55'0 0.0
2017-Dec-27 02:28N 09°22' W 079°55'0 0.0
2017-Dec-27 01:58N 09°22' W 079°55'0 0.0
2017-Dec-27 01:28N 09°22' W 079°55'0 0.0
2017-Dec-27 00:58N 09°22' W 079°55'0 0.0
2017-Dec-27 00:28N 09°22' W 079°55'0 0.0
2017-Dec-26 23:58N 09°22' W 079°55'0 0.0
2017-Dec-26 23:28N 09°22' W 079°55'0 0.0
2017-Dec-26 22:58N 09°22' W 079°55'0 0.0
2017-Dec-26 22:28N 09°22' W 079°55'0 0.0
2017-Dec-26 21:58N 09°22' W 079°55'0 0.0
2017-Dec-26 21:28N 09°22' W 079°55'0 0.0
2017-Dec-26 20:58N 09°22' W 079°55'0 0.0
2017-Dec-26 20:28N 09°22' W 079°55'0 0.0
2017-Dec-26 19:58N 09°22' W 079°55'0 0.0
2017-Dec-26 19:28N 09°22' W 079°55'0 0.0
2017-Dec-26 18:58N 09°22' W 079°55'0 0.0
2017-Dec-26 18:28N 09°22' W 079°55'0 0.0
2017-Dec-26 17:58N 09°22' W 079°55'0 0.0
2017-Dec-26 17:28N 09°22' W 079°55'0 0.0
2017-Dec-26 16:58N 09°22' W 079°55'0 0.0
2017-Dec-26 16:28N 09°22' W 079°55'0 0.0
2017-Dec-26 15:58N 09°22' W 079°55'0 0.0
2017-Dec-26 15:28N 09°22' W 079°55'0 0.0
2017-Dec-26 14:58N 09°22' W 079°55'0 0.0
2017-Dec-26 14:28N 09°22' W 079°55'0 0.0
2017-Dec-26 13:58N 09°22' W 079°55'0 0.0
2017-Dec-26 13:28N 09°22' W 079°55'0 0.0
2017-Dec-26 12:58N 09°22' W 079°55'0 0.0
2017-Dec-26 12:30N 09°22' W 079°55'0 0.0
2017-Dec-26 12:00N 09°22' W 079°55'0 0.0
2017-Dec-26 11:30N 09°22' W 079°55'0 0.0
2017-Dec-26 11:00N 09°22' W 079°55'0 0.0
2017-Dec-26 10:30N 09°22' W 079°55'0 0.0
2017-Dec-26 09:59N 09°22' W 079°55'0 0.0
2017-Dec-26 09:29N 09°22' W 079°55'0 0.0
2017-Dec-26 08:56N 09°22' W 079°55'0 0.0
2017-Dec-26 08:29N 09°22' W 079°55'0 0.0
2017-Dec-26 07:59N 09°22' W 079°55'0 0.0
2017-Dec-26 07:29N 09°22' W 079°55'0 0.0
2017-Dec-26 06:59N 09°22' W 079°55'0 0.0
2017-Dec-26 06:29N 09°22' W 079°55'0 0.0
2017-Dec-26 05:59N 09°22' W 079°55'0 0.0
2017-Dec-26 05:29N 09°22' W 079°55'0 0.0
2017-Dec-26 04:59N 09°22' W 079°55'0 0.0
2017-Dec-26 04:29N 09°22' W 079°55'0 0.0
2017-Dec-26 03:59N 09°22' W 079°55'0 0.0
2017-Dec-26 03:30N 09°22' W 079°55'0 0.0
2017-Dec-26 02:59N 09°22' W 079°55'0 0.0
2017-Dec-26 02:25N 09°22' W 079°55'0 0.0
2017-Dec-26 01:58N 09°22' W 079°55'0 0.0
2017-Dec-26 01:28N 09°22' W 079°55'0 0.0
2017-Dec-26 00:58N 09°22' W 079°55'0 0.0
2017-Dec-26 00:28N 09°22' W 079°55'0 0.0
2017-Dec-25 23:58N 09°22' W 079°55'0 0.0
2017-Dec-25 23:28N 09°22' W 079°55'0 0.0
2017-Dec-25 22:58N 09°22' W 079°55'0 0.0
2017-Dec-25 22:28N 09°22' W 079°55'0 0.0
2017-Dec-25 21:58N 09°22' W 079°55'0 0.0
2017-Dec-25 21:28N 09°22' W 079°55'0 0.0
2017-Dec-25 20:58N 09°22' W 079°55'0 0.0
2017-Dec-25 20:28N 09°22' W 079°55'0 0.0
2017-Dec-25 19:58N 09°22' W 079°55'0 0.0
2017-Dec-25 19:28N 09°22' W 079°55'0 0.0
2017-Dec-25 18:58N 09°22' W 079°55'0 0.0
2017-Dec-25 18:28N 09°22' W 079°55'0 0.0
2017-Dec-25 17:58N 09°22' W 079°55'0 0.0
2017-Dec-25 17:28N 09°22' W 079°55'0 0.0
2017-Dec-25 16:58N 09°22' W 079°55'0 0.0
2017-Dec-25 16:28N 09°22' W 079°55'0 0.0
2017-Dec-25 15:58N 09°22' W 079°55'0 0.0
2017-Dec-25 15:28N 09°22' W 079°55'0 0.0
2017-Dec-25 14:58N 09°22' W 079°55'0 0.0
2017-Dec-25 14:28N 09°22' W 079°55'0 0.0
2017-Dec-25 13:58N 09°22' W 079°55'0 0.0
2017-Dec-25 13:28N 09°22' W 079°55'0 0.0
2017-Dec-25 12:58N 09°22' W 079°55'0 0.0
2017-Dec-25 12:28N 09°22' W 079°55'0 0.0
2017-Dec-25 11:58N 09°22' W 079°55'0 0.0
2017-Dec-25 11:28N 09°22' W 079°55'1 2.1
2017-Dec-25 11:00N 09°23' W 079°55'2 3.4
2017-Dec-25 10:30N 09°25' W 079°55'1 2.7
2017-Dec-25 10:00N 09°26' W 079°54'2 4.6
2017-Dec-25 09:30N 09°27' W 079°52'3 6.4
2017-Dec-25 09:00N 09°29' W 079°50'  
2017-Dec-21 22:22N 10°20' W 075°31'0 0.0
2017-Dec-21 21:58N 10°20' W 075°31'0 0.0
2017-Dec-21 21:28N 10°20' W 075°31'0 0.0
2017-Dec-21 20:58N 10°20' W 075°31'0 0.0
2017-Dec-21 20:28N 10°20' W 075°31'0 0.0
2017-Dec-21 19:58N 10°20' W 075°31'0 0.0
2017-Dec-21 19:28N 10°20' W 075°31'0 0.0
2017-Dec-21 18:58N 10°20' W 075°31'0 0.0
2017-Dec-21 18:28N 10°20' W 075°31'0 0.0
2017-Dec-21 17:58N 10°20' W 075°31'0 0.0
2017-Dec-21 17:28N 10°20' W 075°31'0 0.0
2017-Dec-21 17:00N 10°20' W 075°31'0 0.0
2017-Dec-21 16:30N 10°20' W 075°31'  

Dump ship's entire track history